Pineville, MO (64856)

8:39 AM CDT on September 02, 2014 (GMT -0500)
Loch Lomond | Change Station
CLOSE
Current Station
Personal Weather Station
Location: Bella Vista, AR
Elevation: 1243 ft
Nearby Weather Stations

Elev 1243 ft 36.48 °N, 94.33 °W | Updated 8 minutes ago

Rain
Rain
65.2 °F
Feels Like 65.2 °F
N
0.0
Wind Variable Wind from SW
Gusts 0.0 mph

Today
High -- | Low -- °F
--% Chance of Precip.
Yesterday
High -- | Low -- °F
Precip. -- in
6:49 AM 7:44 PM
First Quarter, 51% visible
Pressure 30.06 in
Visibility 10.0 miles
Clouds Few 3600 ft
Mostly Cloudy 5000 ft
Overcast 8500 ft
Dew Point 63 °F
Humidity 94%
Rainfall 1.83 in
Snow Depth Not available.
UV 0 out of 12
Pollen 7.10 out of 12
Air Quality Not available.
Flu Activity Not available.
METAR KVBT 021335Z AUTO 15013G17KT 10SM FEW036 BKN050 OVC085 19/17 A3006 RMK AO1 LTG DSNT S TSE1259 P0004

More Conditions Fewer Conditions

Pressure 30.06 in
Visibility 10.0 miles
Clouds Few 3600 ft
Mostly Cloudy 5000 ft
Overcast 8500 ft
Dew Point 63 °F
Humidity 94%
Rainfall 1.83 in
Snow Depth Not available.
UV 0 out of 12
Pollen 7.10 out of 12
Air Quality Not available.
Flu Activity Not available.
METAR KVBT 021335Z AUTO 15013G17KT 10SM FEW036 BKN050 OVC085 19/17 A3006 RMK AO1 LTG DSNT S TSE1259 P0004

More Conditions Fewer Conditions

10-Day Weather Forecast

Almanac

Astronomy

Sep. 02, 2014 Rise Set
Actual Time 6:49 AM CDT 7:44 PM CDT
Civil Twilight 6:23 AM CDT 8:10 PM CDT
Nautical Twilight 5:51 AM CDT 8:41 PM CDT
Astronomical Twilight 5:19 AM CDT 9:13 PM CDT
Moon 2:23 PM CDT No Moon Set
Length of Visible Light 13h 47m
Length of Day
12h 54m
Tomorrow will be 2m 15s shorter.
First Quarter, 51% of the Moon is Illuminated
Today
First Quarter
Sep 8
Full
Sep 15
Last Quarter
Sep 24
New
Oct 1
First Quarter

Today's Extremes

State Highs State Lows

Community

WunderPhotos

Upload Photos

1,749,647 photos uploaded!

Nearby

Snow Depth

Station Depth Elevation
No new snow has been reported.

Earthquake Activity

City Distance Mag. Time & Date
No recent earthquake activity has been reported nearby.
Minimum magnitude displayed is 2.5.

Coastal Water Temperatures

Place Temperature
No Stations Reporting

Nearby Weather Stations